Wetterdaten: Freitag, 28.12.2007
Datum Zeit Temp. A. Feuchte A. Luftdruck Regen Wind Richtung Richtung Sonnenschein UV Solar Windben
28.12.2007 00:00 4,1 C 86 % 1029,5 hPa 0,0 mm 0,0 km/h (0 Bft) SO 135 0 min 0 UV-I 0 W/m 3,2 km/h (1 Bft)
28.12.2007 00:10 4,1 C 86 % 1029,5 hPa 0,0 mm 0,0 km/h (0 Bft) SO 135 0 min 0 UV-I 0 W/m 4,8 km/h (1 Bft)
28.12.2007 00:20 4,1 C 87 % 1029,4 hPa 0,0 mm 0,0 km/h (0 Bft) SO 135 0 min 0 UV-I 0 W/m 3,2 km/h (1 Bft)
28.12.2007 00:30 4,1 C 87 % 1029,2 hPa 0,0 mm 0,0 km/h (0 Bft) SO 135 0 min 0 UV-I 0 W/m 1,6 km/h (1 Bft)
28.12.2007 00:40 4,1 C 87 % 1029,2 hPa 0,0 mm 0,0 km/h (0 Bft) SO 135 0 min 0 UV-I 0 W/m 1,6 km/h (1 Bft)
28.12.2007 00:50 4,1 C 87 % 1029,1 hPa 0,0 mm 0,0 km/h (0 Bft) SO 135 0 min 0 UV-I 0 W/m 3,2 km/h (1 Bft)
28.12.2007 01:00 4,1 C 87 % 1029,0 hPa 0,0 mm 0,0 km/h (0 Bft) SO 135 0 min 0 UV-I 0 W/m 1,6 km/h (1 Bft)
28.12.2007 01:10 4,1 C 88 % 1028,9 hPa 0,0 mm 0,0 km/h (0 Bft) SO 135 0 min 0 UV-I 0 W/m 1,6 km/h (1 Bft)
28.12.2007 01:20 4,1 C 88 % 1028,9 hPa 0,0 mm 1,6 km/h (1 Bft) SO 135 0 min 0 UV-I 0 W/m 3,2 km/h (1 Bft)
28.12.2007 01:30 4,1 C 88 % 1028,8 hPa 0,0 mm 0,0 km/h (0 Bft) SO 135 0 min 0 UV-I 0 W/m 3,2 km/h (1 Bft)
28.12.2007 01:40 4,1 C 88 % 1028,8 hPa 0,0 mm 0,0 km/h (0 Bft) SO 135 0 min 0 UV-I 0 W/m 3,2 km/h (1 Bft)
28.12.2007 01:50 4,1 C 88 % 1028,7 hPa 0,0 mm 0,0 km/h (0 Bft) SO 135 0 min 0 UV-I 0 W/m 1,6 km/h (1 Bft)
28.12.2007 02:00 4,2 C 89 % 1028,8 hPa 0,0 mm 0,0 km/h (0 Bft) SO 135 0 min 0 UV-I 0 W/m 3,2 km/h (1 Bft)
28.12.2007 02:10 4,2 C 89 % 1028,8 hPa 0,0 mm 0,0 km/h (0 Bft) SO 135 0 min 0 UV-I 0 W/m 3,2 km/h (1 Bft)
28.12.2007 02:20 4,2 C 89 % 1028,8 hPa 0,0 mm 0,0 km/h (0 Bft) SO 135 0 min 0 UV-I 0 W/m 1,6 km/h (1 Bft)
28.12.2007 02:30 4,2 C 89 % 1028,8 hPa 0,0 mm 0,0 km/h (0 Bft) SO 135 0 min 0 UV-I 0 W/m 1,6 km/h (1 Bft)
28.12.2007 02:40 4,2 C 89 % 1028,9 hPa 0,0 mm 0,0 km/h (0 Bft) SO 135 0 min 0 UV-I 0 W/m 3,2 km/h (1 Bft)
28.12.2007 02:50 4,2 C 89 % 1028,9 hPa 0,0 mm 1,6 km/h (1 Bft) NO 45 0 min 0 UV-I 0 W/m 4,8 km/h (1 Bft)
28.12.2007 03:00 4,2 C 89 % 1028,9 hPa 0,0 mm 0,0 km/h (0 Bft) NO 45 0 min 0 UV-I 0 W/m 1,6 km/h (1 Bft)
28.12.2007 03:10 4,2 C 89 % 1028,9 hPa 0,0 mm 0,0 km/h (0 Bft) N 0 0 min 0 UV-I 0 W/m 0,0 km/h (0 Bft)
28.12.2007 03:20 4,2 C 89 % 1028,8 hPa 0,0 mm 0,0 km/h (0 Bft) NO 45 0 min 0 UV-I 0 W/m 1,6 km/h (1 Bft)
28.12.2007 03:30 4,2 C 89 % 1028,6 hPa 0,0 mm 0,0 km/h (0 Bft) NO 45 0 min 0 UV-I 0 W/m 1,6 km/h (1 Bft)
28.12.2007 03:40 4,2 C 89 % 1028,6 hPa 0,0 mm 0,0 km/h (0 Bft) N 0 0 min 0 UV-I 0 W/m 0,0 km/h (0 Bft)
28.12.2007 03:50 4,2 C 89 % 1028,5 hPa 0,0 mm 0,0 km/h (0 Bft) NO 45 0 min 0 UV-I 0 W/m 1,6 km/h (1 Bft)
28.12.2007 04:00 4,2 C 89 % 1028,6 hPa 0,0 mm 0,0 km/h (0 Bft) NO 45 0 min 0 UV-I 0 W/m 1,6 km/h (1 Bft)
28.12.2007 04:10 4,2 C 89 % 1028,5 hPa 0,0 mm 0,0 km/h (0 Bft) N 0 0 min 0 UV-I 0 W/m 0,0 km/h (0 Bft)
28.12.2007 04:20 4,2 C 90 % 1028,3 hPa 0,0 mm 0,0 km/h (0 Bft) NO 45 0 min 0 UV-I 0 W/m 1,6 km/h (1 Bft)
28.12.2007 04:30 4,2 C 90 % 1028,3 hPa 0,0 mm 0,0 km/h (0 Bft) NO 45 0 min 0 UV-I 0 W/m 3,2 km/h (1 Bft)
28.12.2007 04:40 4,3 C 90 % 1028,3 hPa 0,0 mm 0,0 km/h (0 Bft) O-NO 67 0 min 0 UV-I 0 W/m 1,6 km/h (1 Bft)
28.12.2007 04:50 4,4 C 91 % 1028,1 hPa 0,0 mm 1,6 km/h (1 Bft) O-SO 112 0 min 0 UV-I 0 W/m 4,8 km/h (1 Bft)
28.12.2007 05:00 4,6 C 91 % 1028,1 hPa 0,0 mm 0,0 km/h (0 Bft) SO 135 0 min 0 UV-I 0 W/m 3,2 km/h (1 Bft)
28.12.2007 05:10 4,7 C 91 % 1028,0 hPa 0,0 mm 0,0 km/h (0 Bft) SO 135 0 min 0 UV-I 0 W/m 3,2 km/h (1 Bft)
28.12.2007 05:20 4,8 C 91 % 1028,0 hPa 0,0 mm 1,6 km/h (1 Bft) SW 225 0 min 0 UV-I 0 W/m 6,4 km/h (2 Bft)
28.12.2007 05:30 5,0 C 91 % 1028,0 hPa 0,0 mm 3,2 km/h (1 Bft) SW 225 0 min 0 UV-I 0 W/m 8,0 km/h (2 Bft)
28.12.2007 05:40 5,3 C 90 % 1027,8 hPa 0,0 mm 1,6 km/h (1 Bft) S-SW 202 0 min 0 UV-I 0 W/m 8,0 km/h (2 Bft)
28.12.2007 05:50 5,4 C 89 % 1027,8 hPa 0,0 mm 1,6 km/h (1 Bft) SW 225 0 min 0 UV-I 0 W/m 6,4 km/h (2 Bft)
28.12.2007 06:00 5,6 C 89 % 1027,8 hPa 0,0 mm 1,6 km/h (1 Bft) S-SW 202 0 min 0 UV-I 0 W/m 4,8 km/h (1 Bft)
28.12.2007 06:10 5,7 C 88 % 1027,8 hPa 0,0 mm 1,6 km/h (1 Bft) S-SW 202 0 min 0 UV-I 0 W/m 4,8 km/h (1 Bft)
28.12.2007 06:20 5,7 C 88 % 1027,6 hPa 0,0 mm 1,6 km/h (1 Bft) S-SW 202 0 min 0 UV-I 0 W/m 6,4 km/h (2 Bft)
28.12.2007 06:30 5,8 C 92 % 1027,6 hPa 0,0 mm 1,6 km/h (1 Bft) S-SW 202 0 min 0 UV-I 0 W/m 6,4 km/h (2 Bft)
28.12.2007 06:40 5,8 C 87 % 1027,5 hPa 0,0 mm 1,6 km/h (1 Bft) S-SW 202 0 min 0 UV-I 0 W/m 6,4 km/h (2 Bft)
28.12.2007 06:50 5,9 C 87 % 1027,5 hPa 0,0 mm 1,6 km/h (1 Bft) S-SW 202 0 min 0 UV-I 0 W/m 8,0 km/h (2 Bft)
28.12.2007 07:00 5,9 C 87 % 1027,4 hPa 0,0 mm 1,6 km/h (1 Bft) S-SW 202 0 min 0 UV-I 0 W/m 6,4 km/h (2 Bft)
28.12.2007 07:10 5,9 C 87 % 1027,3 hPa 0,0 mm 1,6 km/h (1 Bft) S-SW 202 0 min 0 UV-I 0 W/m 8,0 km/h (2 Bft)
28.12.2007 07:20 6,0 C 87 % 1027,3 hPa 0,0 mm 1,6 km/h (1 Bft) S-SW 202 0 min 0 UV-I 0 W/m 6,4 km/h (2 Bft)
28.12.2007 07:30 6,0 C 87 % 1027,3 hPa 0,0 mm 1,6 km/h (1 Bft) S-SW 202 0 min 0 UV-I 0 W/m 6,4 km/h (2 Bft)
28.12.2007 07:40 6,0 C 87 % 1027,2 hPa 0,0 mm 1,6 km/h (1 Bft) S-SW 202 0 min 0 UV-I 0 W/m 6,4 km/h (2 Bft)
28.12.2007 07:50 6,0 C 87 % 1027,1 hPa 0,0 mm 3,2 km/h (1 Bft) S-SW 202 0 min 0 UV-I 0 W/m 8,0 km/h (2 Bft)
28.12.2007 08:00 6,1 C 87 % 1027,1 hPa 0,0 mm 1,6 km/h (1 Bft) S-SW 202 0 min 0 UV-I 0 W/m 6,4 km/h (2 Bft)
28.12.2007 08:10 6,1 C 87 % 1027,1 hPa 0,0 mm 3,2 km/h (1 Bft) S 180 0 min 0 UV-I 0 W/m 6,4 km/h (2 Bft)
28.12.2007 08:20 6,1 C 87 % 1027,1 hPa 0,0 mm 1,6 km/h (1 Bft) S 180 0 min 0 UV-I 0 W/m 6,4 km/h (2 Bft)
28.12.2007 08:30 6,2 C 86 % 1027,1 hPa 0,0 mm 1,6 km/h (1 Bft) S-SW 202 0 min 0 UV-I 0 W/m 4,8 km/h (1 Bft)
28.12.2007 08:40 6,2 C 86 % 1027,1 hPa 0,0 mm 1,6 km/h (1 Bft) S 180 0 min 0 UV-I 0 W/m 4,8 km/h (1 Bft)
28.12.2007 08:50 6,2 C 86 % 1027,2 hPa 0,0 mm 1,6 km/h (1 Bft) S 180 0 min 0 UV-I 0 W/m 4,8 km/h (1 Bft)
28.12.2007 09:00 6,2 C 87 % 1027,2 hPa 0,0 mm 1,6 km/h (1 Bft) S 180 0 min 0 UV-I 9 W/m 6,4 km/h (2 Bft)
28.12.2007 09:10 6,2 C 87 % 1027,1 hPa 0,0 mm 1,6 km/h (1 Bft) S 180 0 min 0 UV-I 11 W/m 6,4 km/h (2 Bft)
28.12.2007 09:20 6,2 C 86 % 1027,2 hPa 0,0 mm 1,6 km/h (1 Bft) S-SW 202 0 min 0 UV-I 14 W/m 8,0 km/h (2 Bft)
28.12.2007 09:30 6,3 C 86 % 1027,1 hPa 0,0 mm 1,6 km/h (1 Bft) S-SW 202 0 min 0 UV-I 18 W/m 6,4 km/h (2 Bft)
28.12.2007 09:40 6,3 C 86 % 1027,1 hPa 0,0 mm 1,6 km/h (1 Bft) S-SW 202 0 min 0 UV-I 26 W/m 4,8 km/h (1 Bft)
28.12.2007 09:50 6,4 C 86 % 1027,1 hPa 0,0 mm 1,6 km/h (1 Bft) S-SW 202 0 min 0 UV-I 32 W/m 3,2 km/h (1 Bft)
28.12.2007 10:00 6,4 C 86 % 1027,0 hPa 0,0 mm 3,2 km/h (1 Bft) S-SW 202 0 min 0 UV-I 42 W/m 9,7 km/h (2 Bft)
28.12.2007 10:10 6,6 C 85 % 1027,0 hPa 0,0 mm 3,2 km/h (1 Bft) SW 225 0 min 0 UV-I 58 W/m 8,0 km/h (2 Bft)
28.12.2007 10:20 6,8 C 84 % 1027,0 hPa 0,0 mm 3,2 km/h (1 Bft) SW 225 0 min 0 UV-I 93 W/m 8,0 km/h (2 Bft)
28.12.2007 10:30 7,0 C 83 % 1027,0 hPa 0,0 mm 3,2 km/h (1 Bft) SW 225 10 min 0 UV-I 114 W/m 8,0 km/h (2 Bft)
28.12.2007 10:40 7,2 C 82 % 1027,0 hPa 0,0 mm 1,6 km/h (1 Bft) W-SW 247 10 min 0 UV-I 137 W/m 6,4 km/h (2 Bft)
28.12.2007 10:50 7,3 C 82 % 1027,0 hPa 0,0 mm 1,6 km/h (1 Bft) W 270 10 min 0 UV-I 146 W/m 4,8 km/h (1 Bft)
28.12.2007 11:00 7,4 C 80 % 1026,9 hPa 0,0 mm 1,6 km/h (1 Bft) W-SW 247 10 min 0 UV-I 146 W/m 4,8 km/h (1 Bft)
28.12.2007 11:10 7,9 C 78 % 1026,8 hPa 0,0 mm 1,6 km/h (1 Bft) S-SW 202 10 min 0 UV-I 132 W/m 3,2 km/h (1 Bft)
28.12.2007 11:20 8,2 C 77 % 1026,7 hPa 0,0 mm 1,6 km/h (1 Bft) S-SW 202 0 min 0 UV-I 125 W/m 11,3 km/h (2 Bft)
28.12.2007 11:30 8,4 C 76 % 1026,6 hPa 0,0 mm 1,6 km/h (1 Bft) S-SW 202 0 min 0 UV-I 123 W/m 4,8 km/h (1 Bft)
28.12.2007 11:40 8,4 C 75 % 1026,5 hPa 0,0 mm 3,2 km/h (1 Bft) S-SW 202 0 min 0 UV-I 109 W/m 11,3 km/h (2 Bft)
28.12.2007 11:50 8,6 C 74 % 1026,5 hPa 0,0 mm 6,4 km/h (2 Bft) SW 225 0 min 0 UV-I 107 W/m 17,7 km/h (3 Bft)
28.12.2007 12:00 8,7 C 74 % 1026,3 hPa 0,0 mm 4,8 km/h (1 Bft) SW 225 0 min 0 UV-I 113 W/m 14,5 km/h (3 Bft)
28.12.2007 12:10 8,7 C 74 % 1026,2 hPa 0,0 mm 6,4 km/h (2 Bft) SW 225 0 min 0 UV-I 116 W/m 16,1 km/h (3 Bft)
28.12.2007 12:20 8,7 C 74 % 1026,1 hPa 0,0 mm 6,4 km/h (2 Bft) SW 225 10 min 1 UV-I 204 W/m 16,1 km/h (3 Bft)
28.12.2007 12:30 8,9 C 74 % 1026,0 hPa 0,0 mm 8,0 km/h (2 Bft) SW 225 10 min 1 UV-I 239 W/m 17,7 km/h (3 Bft)
28.12.2007 12:40 9,1 C 74 % 1025,9 hPa 0,0 mm 6,4 km/h (2 Bft) SW 225 10 min 1 UV-I 272 W/m 17,7 km/h (3 Bft)
28.12.2007 12:50 9,2 C 73 % 1025,7 hPa 0,0 mm 8,0 km/h (2 Bft) SW 225 10 min 1 UV-I 294 W/m 20,9 km/h (4 Bft)
28.12.2007 13:00 9,2 C 74 % 1025,7 hPa 0,0 mm 8,0 km/h (2 Bft) SW 225 10 min 1 UV-I 264 W/m 24,1 km/h (4 Bft)
28.12.2007 13:10 9,1 C 74 % 1025,6 hPa 0,0 mm 6,4 km/h (2 Bft) SW 225 10 min 1 UV-I 279 W/m 14,5 km/h (3 Bft)
28.12.2007 13:20 9,1 C 74 % 1025,5 hPa 0,0 mm 6,4 km/h (2 Bft) SW 225 10 min 1 UV-I 250 W/m 16,1 km/h (3 Bft)
28.12.2007 13:30 8,9 C 74 % 1025,4 hPa 0,0 mm 6,4 km/h (2 Bft) SW 225 0 min 0 UV-I 111 W/m 17,7 km/h (3 Bft)
28.12.2007 13:40 9,0 C 74 % 1025,2 hPa 0,0 mm 6,4 km/h (2 Bft) SW 225 0 min 0 UV-I 84 W/m 19,3 km/h (3 Bft)
28.12.2007 13:50 9,1 C 73 % 1025,1 hPa 0,0 mm 6,4 km/h (2 Bft) S-SW 202 0 min 0 UV-I 74 W/m 19,3 km/h (3 Bft)
28.12.2007 14:00 9,2 C 73 % 1025,0 hPa 0,0 mm 6,4 km/h (2 Bft) SW 225 0 min 0 UV-I 67 W/m 19,3 km/h (3 Bft)
28.12.2007 14:10 9,2 C 73 % 1025,0 hPa 0,0 mm 4,8 km/h (1 Bft) SW 225 0 min 0 UV-I 58 W/m 17,7 km/h (3 Bft)
28.12.2007 14:20 9,1 C 73 % 1024,9 hPa 0,0 mm 8,0 km/h (2 Bft) SW 225 0 min 0 UV-I 53 W/m 19,3 km/h (3 Bft)
28.12.2007 14:30 8,9 C 74 % 1024,9 hPa 0,0 mm 8,0 km/h (2 Bft) SW 225 0 min 0 UV-I 49 W/m 22,5 km/h (4 Bft)
28.12.2007 14:40 8,8 C 74 % 1024,8 hPa 0,0 mm 8,0 km/h (2 Bft) SW 225 0 min 0 UV-I 49 W/m 19,3 km/h (3 Bft)
28.12.2007 14:50 8,7 C 74 % 1024,7 hPa 0,0 mm 6,4 km/h (2 Bft) SW 225 0 min 0 UV-I 56 W/m 16,1 km/h (3 Bft)
28.12.2007 15:00 8,6 C 74 % 1024,6 hPa 0,0 mm 6,4 km/h (2 Bft) SW 225 0 min 0 UV-I 56 W/m 16,1 km/h (3 Bft)
28.12.2007 15:10 8,4 C 74 % 1024,5 hPa 0,0 mm 8,0 km/h (2 Bft) SW 225 0 min 0 UV-I 49 W/m 17,7 km/h (3 Bft)
28.12.2007 15:20 8,4 C 74 % 1024,6 hPa 0,0 mm 6,4 km/h (2 Bft) SW 225 0 min 0 UV-I 53 W/m 17,7 km/h (3 Bft)
28.12.2007 15:30 8,3 C 74 % 1024,4 hPa 0,0 mm 4,8 km/h (1 Bft) S-SW 202 0 min 0 UV-I 46 W/m 14,5 km/h (3 Bft)
28.12.2007 15:40 8,1 C 75 % 1024,4 hPa 0,0 mm 4,8 km/h (1 Bft) SW 225 0 min 0 UV-I 32 W/m 12,9 km/h (3 Bft)
28.12.2007 15:50 7,9 C 76 % 1024,3 hPa 0,0 mm 4,8 km/h (1 Bft) SW 225 10 min 0 UV-I 28 W/m 17,7 km/h (3 Bft)
28.12.2007 16:00 7,8 C 76 % 1024,3 hPa 0,0 mm 4,8 km/h (1 Bft) SW 225 10 min 0 UV-I 23 W/m 11,3 km/h (2 Bft)
28.12.2007 16:10 7,7 C 76 % 1024,3 hPa 0,0 mm 4,8 km/h (1 Bft) S-SW 202 0 min 0 UV-I 18 W/m 11,3 km/h (2 Bft)
28.12.2007 16:20 7,6 C 76 % 1024,4 hPa 0,0 mm 4,8 km/h (1 Bft) SW 225 0 min 0 UV-I 9 W/m 14,5 km/h (3 Bft)
28.12.2007 16:30 7,4 C 76 % 1024,4 hPa 0,0 mm 3,2 km/h (1 Bft) SW 225 0 min 0 UV-I 5 W/m 14,5 km/h (3 Bft)
28.12.2007 16:40 7,2 C 77 % 1024,4 hPa 0,0 mm 3,2 km/h (1 Bft) SW 225 0 min 0 UV-I 0 W/m 8,0 km/h (2 Bft)
28.12.2007 16:50 7,0 C 78 % 1024,2 hPa 0,0 mm 3,2 km/h (1 Bft) S-SW 202 0 min 0 UV-I 0 W/m 11,3 km/h (2 Bft)
28.12.2007 17:00 6,8 C 78 % 1024,2 hPa 0,0 mm 3,2 km/h (1 Bft) S-SW 202 0 min 0 UV-I 0 W/m 14,5 km/h (3 Bft)
28.12.2007 17:10 6,7 C 78 % 1024,2 hPa 0,0 mm 3,2 km/h (1 Bft) S-SW 202 0 min 0 UV-I 0 W/m 11,3 km/h (2 Bft)
28.12.2007 17:20 6,6 C 78 % 1024,1 hPa 0,0 mm 3,2 km/h (1 Bft) S-SW 202 0 min 0 UV-I 0 W/m 9,7 km/h (2 Bft)
28.12.2007 17:30 6,5 C 78 % 1023,9 hPa 0,0 mm 3,2 km/h (1 Bft) S-SW 202 0 min 0 UV-I 0 W/m 11,3 km/h (2 Bft)
28.12.2007 17:40 6,4 C 78 % 1023,9 hPa 0,0 mm 3,2 km/h (1 Bft) S 180 0 min 0 UV-I 0 W/m 14,5 km/h (3 Bft)
28.12.2007 17:50 6,3 C 79 % 1023,9 hPa 0,0 mm 3,2 km/h (1 Bft) S-SW 202 0 min 0 UV-I 0 W/m 9,7 km/h (2 Bft)
28.12.2007 18:00 6,2 C 79 % 1023,9 hPa 0,0 mm 1,6 km/h (1 Bft) S-SW 202 0 min 0 UV-I 0 W/m 6,4 km/h (2 Bft)
28.12.2007 18:10 6,1 C 79 % 1023,8 hPa 0,0 mm 1,6 km/h (1 Bft) S 180 0 min 0 UV-I 0 W/m 8,0 km/h (2 Bft)
28.12.2007 18:20 5,9 C 78 % 1023,9 hPa 0,0 mm 1,6 km/h (1 Bft) SO 135 0 min 0 UV-I 0 W/m 4,8 km/h (1 Bft)
28.12.2007 18:30 5,6 C 78 % 1023,8 hPa 0,0 mm 1,6 km/h (1 Bft) S-SO 157 0 min 0 UV-I 0 W/m 4,8 km/h (1 Bft)
28.12.2007 18:40 5,2 C 79 % 1023,8 hPa 0,0 mm 1,6 km/h (1 Bft) S-SO 157 0 min 0 UV-I 0 W/m 4,8 km/h (1 Bft)
28.12.2007 18:50 4,9 C 80 % 1023,8 hPa 0,0 mm 1,6 km/h (1 Bft) SO 135 0 min 0 UV-I 0 W/m 4,8 km/h (1 Bft)
28.12.2007 19:00 4,5 C 81 % 1023,7 hPa 0,0 mm 1,6 km/h (1 Bft) S-SO 157 0 min 0 UV-I 0 W/m 4,8 km/h (1 Bft)
28.12.2007 19:10 4,2 C 82 % 1023,6 hPa 0,0 mm 1,6 km/h (1 Bft) S-SO 157 0 min 0 UV-I 0 W/m 4,8 km/h (1 Bft)
28.12.2007 19:20 3,8 C 84 % 1023,5 hPa 0,0 mm 3,2 km/h (1 Bft) S-SO 157 0 min 0 UV-I 0 W/m 8,0 km/h (2 Bft)
28.12.2007 19:30 3,7 C 85 % 1023,5 hPa 0,0 mm 3,2 km/h (1 Bft) S-SO 157 0 min 0 UV-I 0 W/m 6,4 km/h (2 Bft)
28.12.2007 19:40 3,6 C 85 % 1023,3 hPa 0,0 mm 3,2 km/h (1 Bft) SO 135 0 min 0 UV-I 0 W/m 9,7 km/h (2 Bft)
28.12.2007 19:50 3,5 C 86 % 1023,2 hPa 0,0 mm 1,6 km/h (1 Bft) O-SO 112 0 min 0 UV-I 0 W/m 6,4 km/h (2 Bft)
28.12.2007 20:00 3,4 C 86 % 1023,1 hPa 0,0 mm 1,6 km/h (1 Bft) SO 135 0 min 0 UV-I 0 W/m 8,0 km/h (2 Bft)
28.12.2007 20:10 3,3 C 86 % 1023,0 hPa 0,0 mm 1,6 km/h (1 Bft) S-SO 157 0 min 0 UV-I 0 W/m 6,4 km/h (2 Bft)
28.12.2007 20:20 3,3 C 86 % 1022,8 hPa 0,0 mm 1,6 km/h (1 Bft) S-SO 157 0 min 0 UV-I 0 W/m 6,4 km/h (2 Bft)
28.12.2007 20:30 3,2 C 86 % 1022,7 hPa 0,0 mm 3,2 km/h (1 Bft) SO 135 0 min 0 UV-I 0 W/m 8,0 km/h (2 Bft)
28.12.2007 20:40 3,2 C 87 % 1022,5 hPa 0,0 mm 3,2 km/h (1 Bft) S-SO 157 0 min 0 UV-I 0 W/m 14,5 km/h (3 Bft)
28.12.2007 20:50 3,2 C 87 % 1022,4 hPa 0,0 mm 3,2 km/h (1 Bft) S-SO 157 0 min 0 UV-I 0 W/m 14,5 km/h (3 Bft)
28.12.2007 21:00 3,3 C 87 % 1022,5 hPa 0,0 mm 3,2 km/h (1 Bft) S-SO 157 0 min 0 UV-I 0 W/m 11,3 km/h (2 Bft)
28.12.2007 21:10 3,3 C 86 % 1022,4 hPa 0,0 mm 3,2 km/h (1 Bft) O-SO 112 0 min 0 UV-I 0 W/m 11,3 km/h (2 Bft)
28.12.2007 21:20 3,2 C 86 % 1022,3 hPa 0,0 mm 3,2 km/h (1 Bft) SO 135 0 min 0 UV-I 0 W/m 14,5 km/h (3 Bft)
28.12.2007 21:30 3,2 C 86 % 1022,0 hPa 0,0 mm 3,2 km/h (1 Bft) SO 135 0 min 0 UV-I 0 W/m 11,3 km/h (2 Bft)
28.12.2007 21:40 3,2 C 86 % 1022,0 hPa 0,0 mm 4,8 km/h (1 Bft) O-SO 112 0 min 0 UV-I 0 W/m 9,7 km/h (2 Bft)
28.12.2007 21:50 3,2 C 86 % 1021,8 hPa 0,0 mm 4,8 km/h (1 Bft) O-SO 112 0 min 0 UV-I 0 W/m 11,3 km/h (2 Bft)
28.12.2007 22:00 3,2 C 86 % 1021,8 hPa 0,0 mm 3,2 km/h (1 Bft) O-SO 112 0 min 0 UV-I 0 W/m 8,0 km/h (2 Bft)
28.12.2007 22:10 3,1 C 86 % 1021,5 hPa 0,0 mm 4,8 km/h (1 Bft) O-SO 112 0 min 0 UV-I 0 W/m 14,5 km/h (3 Bft)
28.12.2007 22:20 3,1 C 87 % 1021,4 hPa 0,0 mm 4,8 km/h (1 Bft) SO 135 0 min 0 UV-I 0 W/m 14,5 km/h (3 Bft)
28.12.2007 22:30 3,1 C 87 % 1021,3 hPa 0,0 mm 4,8 km/h (1 Bft) O-SO 112 0 min 0 UV-I 0 W/m 16,1 km/h (3 Bft)
28.12.2007 22:40 3,1 C 87 % 1021,3 hPa 0,0 mm 4,8 km/h (1 Bft) O-SO 112 0 min 0 UV-I 0 W/m 11,3 km/h (2 Bft)
28.12.2007 22:50 3,0 C 92 % 1021,1 hPa 0,0 mm 4,8 km/h (1 Bft) SO 135 0 min 0 UV-I 0 W/m 9,7 km/h (2 Bft)
28.12.2007 23:00 3,0 C 87 % 1021,1 hPa 0,0 mm 4,8 km/h (1 Bft) SO 135 0 min 0 UV-I 0 W/m 14,5 km/h (3 Bft)
28.12.2007 23:10 2,9 C 87 % 1020,8 hPa 0,0 mm 4,8 km/h (1 Bft) O-SO 112 0 min 0 UV-I 0 W/m 11,3 km/h (2 Bft)
28.12.2007 23:20 2,8 C 87 % 1020,6 hPa 0,0 mm 3,2 km/h (1 Bft) O-SO 112 0 min 0 UV-I 0 W/m 11,3 km/h (2 Bft)
28.12.2007 23:30 2,7 C 87 % 1020,5 hPa 0,0 mm 3,2 km/h (1 Bft) O-SO 112 0 min 0 UV-I 0 W/m 11,3 km/h (2 Bft)
28.12.2007 23:40 2,7 C 87 % 1020,4 hPa 0,0 mm 4,8 km/h (1 Bft) SO 135 0 min 0 UV-I 0 W/m 16,1 km/h (3 Bft)
28.12.2007 23:50 2,7 C 87 % 1020,1 hPa 0,0 mm 4,8 km/h (1 Bft) S-SO 157 0 min 0 UV-I 0 W/m 16,1 km/h (3 Bft)
_ Min-Zeit 23:30 12:50 23:50 - 00:00 - - - - - 03:10
Minimum _ 2,7 C 73 % 1020,1 hPa - 0,0 km/h (0 Bft) - - - - - 0,0 km/h (0 Bft)
_ Max-Zeit 12:50 06:30 00:00 00:00 12:30 - - 10:30 12:40 12:50 13:00
Maximum _ 9,3 C 92 % 1029,5 hPa 0,0 mm 8,0 km/h
SW (2 Bft)
- - 10 min 1 UV-I 294 W/m 24,1 km/h
S (4 Bft)
Durchschnitt _ 5,7 C 83 % 1025,8 hPa #0,0 mm 2,8 km/h (1 Bft) S-SW - #2:20 h 1 UV-I 96 W/m 8,8 km/h (2 Bft)